createdAt,value
2023-12-04T04:47:25.385Z,-2.00
2023-12-04T04:49:52.651Z,-2.00
2023-12-04T04:52:19.827Z,-2.00
2023-12-04T04:54:46.913Z,-2.00
2023-12-04T04:57:13.908Z,-2.00
2023-12-04T04:59:40.922Z,-2.00
2023-12-04T05:02:08.164Z,-2.00
2023-12-04T05:04:35.195Z,-2.00
2023-12-04T05:07:03.194Z,-2.00
2023-12-04T05:09:30.191Z,-1.90
2023-12-04T05:11:58.576Z,-2.00
2023-12-04T05:14:25.602Z,-2.00
2023-12-04T05:16:52.689Z,-2.00
2023-12-04T05:19:19.793Z,-1.90
2023-12-04T05:21:46.872Z,-1.90
2023-12-04T05:24:13.859Z,-1.90
2023-12-04T05:26:40.798Z,-1.90
2023-12-04T05:29:07.776Z,-1.80
2023-12-04T05:31:34.761Z,-1.80
2023-12-04T05:34:01.856Z,-1.80
2023-12-04T05:36:28.946Z,-1.80
2023-12-04T05:38:58.004Z,-1.70
2023-12-04T05:41:26.242Z,-1.70
2023-12-04T05:43:54.140Z,-1.70
2023-12-04T05:46:21.869Z,-1.70
2023-12-04T05:48:49.224Z,-1.60
2023-12-04T05:51:16.533Z,-1.60
2023-12-04T05:53:43.679Z,-1.60
2023-12-04T05:56:10.971Z,-1.60
2023-12-04T05:58:37.955Z,-1.50
2023-12-04T06:01:05.072Z,-1.60
2023-12-04T06:03:32.089Z,-1.50
2023-12-04T06:06:00.660Z,-1.60
2023-12-04T06:08:29.316Z,-1.50
2023-12-04T06:10:56.336Z,-1.50
2023-12-04T06:13:23.333Z,-1.50
2023-12-04T06:15:50.673Z,-1.50
2023-12-04T06:18:17.744Z,-1.40
2023-12-04T06:20:44.769Z,-1.40
2023-12-04T06:23:11.892Z,-1.40
2023-12-04T06:25:39.591Z,-1.30
2023-12-04T06:28:06.850Z,-1.30
2023-12-04T06:30:34.198Z,-1.30
2023-12-04T06:33:01.461Z,-1.30
2023-12-04T06:35:28.741Z,-1.30
2023-12-04T06:37:56.133Z,-1.30
2023-12-04T06:40:23.754Z,-1.30
2023-12-04T06:42:51.157Z,-1.30
2023-12-04T06:45:18.539Z,-1.20
2023-12-04T06:47:46.797Z,-1.20
2023-12-04T06:50:13.862Z,-1.20
2023-12-04T06:52:40.815Z,-1.20
2023-12-04T06:55:08.043Z,-1.20
2023-12-04T06:57:35.247Z,-1.20
2023-12-04T07:00:02.314Z,-1.20
2023-12-04T07:02:48.918Z,-1.20
2023-12-04T07:05:17.713Z,-1.10
2023-12-04T07:07:44.724Z,-1.10
2023-12-04T07:10:15.691Z,-1.00
2023-12-04T07:12:43.250Z,-1.00
2023-12-04T07:15:10.754Z,-1.00
2023-12-04T07:17:38.559Z,-1.00
2023-12-04T07:20:09.354Z,-1.00
2023-12-04T07:22:38.646Z,-1.00
2023-12-04T07:25:08.226Z,-1.00
2023-12-04T07:27:35.749Z,-1.00
2023-12-04T07:30:04.276Z,-1.00
2023-12-04T07:32:31.719Z,-1.00
2023-12-04T07:35:00.073Z,-1.10
2023-12-04T07:37:27.560Z,-1.10
2023-12-04T07:39:54.611Z,-1.10
2023-12-04T07:42:21.603Z,-1.20
2023-12-04T07:44:48.842Z,-1.10
2023-12-04T07:47:16.991Z,-1.10
2023-12-04T07:49:45.732Z,-1.00
2023-12-04T07:52:13.004Z,-1.00
2023-12-04T07:54:40.685Z,-1.00
2023-12-04T07:57:07.757Z,-1.00
2023-12-04T07:59:35.731Z,-1.00
2023-12-04T08:02:02.768Z,-0.90
2023-12-04T08:04:30.016Z,-0.90
2023-12-04T08:06:57.456Z,-0.90
2023-12-04T08:09:24.453Z,-0.80
2023-12-04T08:11:51.974Z,-0.80
2023-12-04T08:14:19.722Z,-0.80
2023-12-04T08:16:46.668Z,-0.80
2023-12-04T08:19:13.707Z,-0.70
2023-12-04T08:21:40.786Z,-0.80
2023-12-04T08:24:07.804Z,-0.70
2023-12-04T08:26:34.906Z,-0.70
2023-12-04T08:29:01.969Z,-0.70
2023-12-04T08:31:29.238Z,-0.70
2023-12-04T08:33:56.555Z,-0.60
2023-12-04T08:36:23.636Z,-0.60
2023-12-04T08:38:50.664Z,-0.60
2023-12-04T08:41:17.815Z,-0.50
2023-12-04T08:43:44.906Z,-0.50
2023-12-04T08:46:15.210Z,-0.50
2023-12-04T08:48:42.807Z,-0.40
2023-12-04T08:51:15.758Z,-0.40
2023-12-04T08:53:42.745Z,-0.40
2023-12-04T08:56:12.821Z,-0.30
2023-12-04T08:58:43.400Z,-0.30
2023-12-04T09:01:10.489Z,-0.20
2023-12-04T09:03:37.759Z,-0.20
2023-12-04T09:06:05.248Z,-0.20
2023-12-04T09:08:37.745Z,-0.20
2023-12-04T09:13:39.674Z,-0.10
2023-12-04T09:16:07.005Z,-0.10
2023-12-04T09:18:34.214Z,-0.10
2023-12-04T09:21:01.577Z,-0.10
2023-12-04T09:23:29.162Z,-0.10
2023-12-04T09:25:56.173Z,-0.10
2023-12-04T09:28:23.146Z,0.00
2023-12-04T09:30:50.203Z,0.00
2023-12-04T09:33:17.683Z,0.10
2023-12-04T09:35:44.807Z,0.10
2023-12-04T09:38:11.751Z,0.00
2023-12-04T09:40:38.939Z,0.00
2023-12-04T09:43:06.899Z,0.00
2023-12-04T09:45:34.346Z,-0.10
2023-12-04T09:48:02.801Z,-0.10
2023-12-04T09:50:29.971Z,0.00
2023-12-04T09:52:59.143Z,0.00
2023-12-04T09:55:26.201Z,0.00
2023-12-04T09:57:53.315Z,0.10
2023-12-04T10:00:21.349Z,0.20
2023-12-04T10:02:48.970Z,0.30
2023-12-04T10:05:16.296Z,0.40
2023-12-04T10:07:43.417Z,0.50
2023-12-04T10:10:10.520Z,0.50
2023-12-04T10:12:38.722Z,0.60
2023-12-04T10:15:06.239Z,0.70
2023-12-04T10:17:38.295Z,0.80
2023-12-04T10:20:12.035Z,0.90
2023-12-04T10:22:39.934Z,1.00
2023-12-04T10:25:16.970Z,1.00
2023-12-04T10:27:44.698Z,1.00
2023-12-04T10:30:23.128Z,1.10
2023-12-04T10:32:50.223Z,1.10
2023-12-04T10:35:17.822Z,1.20
2023-12-04T10:37:44.833Z,1.20
2023-12-04T10:40:11.890Z,1.20
2023-12-04T10:42:39.110Z,1.20
2023-12-04T10:45:07.423Z,1.30
2023-12-04T10:47:35.529Z,1.30
2023-12-04T10:50:02.783Z,1.30
2023-12-04T10:52:31.678Z,1.30
2023-12-04T10:54:59.420Z,1.40
2023-12-04T10:57:34.530Z,1.30
2023-12-04T11:00:06.096Z,1.30
2023-12-04T11:02:34.684Z,1.40
2023-12-04T11:05:10.697Z,1.40
2023-12-04T11:08:12.610Z,1.40
2023-12-04T11:10:27.645Z,1.50
2023-12-04T11:12:58.697Z,1.50
2023-12-04T11:15:26.385Z,1.60
2023-12-04T11:17:59.393Z,1.60
2023-12-04T11:20:28.338Z,1.70
2023-12-04T11:22:56.473Z,1.70
2023-12-04T11:25:25.730Z,1.80
2023-12-04T11:27:53.995Z,1.80
2023-12-04T11:30:21.117Z,1.90
2023-12-04T11:32:50.083Z,1.90
2023-12-04T11:35:18.694Z,2.00
2023-12-04T11:37:47.707Z,2.00
2023-12-04T11:40:17.823Z,2.10
2023-12-04T11:42:44.896Z,2.20
2023-12-04T11:45:19.086Z,2.30
2023-12-04T11:47:52.056Z,2.30
2023-12-04T11:50:20.215Z,2.40
2023-12-04T11:52:47.837Z,2.40
2023-12-04T11:55:18.530Z,2.50
2023-12-04T11:57:46.646Z,2.50
2023-12-04T12:00:24.021Z,2.50
2023-12-04T12:03:15.676Z,2.60
2023-12-04T12:05:42.305Z,2.60
2023-12-04T12:08:09.843Z,2.60
2023-12-04T12:10:36.800Z,2.70
2023-12-04T12:13:03.865Z,2.70
2023-12-04T12:15:32.113Z,2.70
2023-12-04T12:17:59.189Z,2.60
2023-12-04T12:20:27.023Z,2.60
2023-12-04T12:22:54.092Z,2.60
2023-12-04T12:25:21.412Z,2.60
2023-12-04T12:27:48.443Z,2.70
2023-12-04T12:30:15.515Z,2.70
2023-12-04T12:32:42.880Z,2.70
2023-12-04T12:35:10.332Z,2.70
2023-12-04T12:37:40.386Z,2.70
2023-12-04T12:40:10.561Z,2.70
2023-12-04T12:42:45.245Z,2.70
2023-12-04T12:45:12.704Z,2.60
2023-12-04T12:47:43.593Z,2.60
2023-12-04T12:50:11.964Z,2.60
2023-12-04T12:52:39.348Z,2.60
2023-12-04T12:55:06.583Z,2.50
2023-12-04T12:57:33.729Z,2.60
2023-12-04T13:00:00.807Z,2.60
2023-12-04T13:02:27.877Z,2.60
2023-12-04T13:04:56.877Z,2.50
2023-12-04T13:07:24.418Z,2.50
2023-12-04T13:09:51.583Z,2.60
2023-12-04T13:12:18.663Z,2.60
2023-12-04T13:14:45.647Z,2.60
2023-12-04T13:17:12.770Z,2.50
2023-12-04T13:19:39.827Z,2.50
2023-12-04T13:22:07.482Z,2.40
2023-12-04T13:24:34.568Z,2.50
2023-12-04T13:27:01.587Z,2.50
2023-12-04T13:29:28.567Z,2.50
2023-12-04T13:31:55.513Z,2.50
2023-12-04T13:34:23.847Z,2.60
2023-12-04T13:36:51.114Z,2.60
2023-12-04T13:39:18.468Z,2.60
2023-12-04T13:42:05.176Z,2.70
2023-12-04T13:44:32.200Z,2.70
2023-12-04T13:46:59.178Z,2.70
2023-12-04T13:49:26.160Z,2.70
2023-12-04T13:51:54.125Z,2.70
2023-12-04T13:54:22.230Z,2.70
2023-12-04T13:56:56.122Z,2.70
2023-12-04T13:59:25.229Z,2.70
2023-12-04T14:01:52.888Z,2.70
2023-12-04T14:04:21.107Z,2.70
2023-12-04T14:06:48.799Z,2.80
2023-12-04T14:09:16.281Z,2.70
2023-12-04T14:11:45.027Z,2.70
2023-12-04T14:14:14.063Z,2.70
2023-12-04T14:16:43.078Z,2.70
2023-12-04T14:19:10.387Z,2.80
2023-12-04T14:21:37.851Z,2.80
2023-12-04T14:24:05.052Z,2.80
2023-12-04T14:26:32.545Z,2.80
2023-12-04T14:29:02.186Z,2.80
2023-12-04T14:31:29.288Z,2.80
2023-12-04T14:33:56.316Z,2.80
2023-12-04T14:36:23.348Z,2.80
2023-12-04T14:38:50.337Z,2.80
2023-12-04T14:41:17.346Z,2.80
2023-12-04T14:43:44.409Z,2.80
2023-12-04T14:46:11.529Z,2.80
2023-12-04T14:48:41.210Z,2.80
2023-12-04T14:51:10.825Z,2.80
2023-12-04T14:54:11.642Z,2.80
2023-12-04T14:57:00.175Z,2.80
2023-12-04T14:59:46.728Z,2.80
2023-12-04T15:02:32.964Z,2.80
2023-12-04T15:05:06.055Z,2.80
2023-12-04T15:07:50.218Z,2.80
2023-12-04T15:10:35.810Z,2.70
2023-12-04T15:13:28.540Z,2.70
2023-12-04T15:16:13.967Z,2.70
2023-12-04T15:18:53.452Z,2.70
2023-12-04T15:21:20.452Z,2.70
2023-12-04T15:23:47.732Z,2.70
2023-12-04T15:26:16.345Z,2.70
2023-12-04T15:28:44.135Z,2.70
2023-12-04T15:31:11.364Z,2.70
2023-12-04T15:33:38.397Z,2.60
2023-12-04T15:36:05.697Z,2.60
2023-12-04T15:38:33.219Z,2.60
2023-12-04T15:41:02.144Z,2.60
2023-12-04T15:43:29.228Z,2.60
2023-12-04T15:45:56.544Z,2.60
2023-12-04T15:48:23.760Z,2.60
2023-12-04T15:50:50.787Z,2.60
2023-12-04T15:53:17.953Z,2.60
2023-12-04T15:55:44.885Z,2.60
2023-12-04T15:58:12.594Z,2.60
2023-12-04T16:00:39.990Z,2.60
2023-12-04T16:03:07.156Z,2.60
2023-12-04T16:05:34.311Z,2.70
2023-12-04T16:08:01.384Z,2.70
2023-12-04T16:10:28.357Z,2.70
2023-12-04T16:12:55.382Z,2.70
2023-12-04T16:15:22.524Z,2.60
2023-12-04T16:17:50.091Z,2.60
2023-12-04T16:20:17.533Z,2.60
2023-12-04T16:22:44.969Z,2.60
2023-12-04T16:25:18.357Z,2.60
2023-12-04T16:27:48.621Z,2.60
2023-12-04T16:30:15.865Z,2.60
2023-12-04T16:32:43.023Z,2.60
2023-12-04T16:35:10.205Z,2.60
2023-12-04T16:37:38.044Z,2.60
2023-12-04T16:40:05.411Z,2.60
2023-12-04T16:42:32.387Z,2.60
2023-12-04T16:44:59.324Z,2.70
2023-12-04T16:47:27.294Z,2.70
2023-12-04T16:49:54.591Z,2.70
2023-12-04T16:52:21.647Z,2.70
2023-12-04T16:54:52.431Z,2.70
2023-12-04T16:57:19.804Z,2.70
2023-12-04T16:59:47.150Z,2.70
2023-12-04T17:02:14.192Z,2.80
2023-12-04T17:04:41.388Z,2.80
2023-12-04T17:07:08.482Z,2.80
2023-12-04T17:09:37.979Z,2.80
2023-12-04T17:12:05.981Z,2.80
2023-12-04T17:14:33.022Z,2.80
2023-12-04T17:17:00.010Z,2.80
2023-12-04T17:19:32.256Z,2.80
2023-12-04T17:21:59.565Z,2.80
2023-12-04T17:24:27.378Z,2.80
2023-12-04T17:26:54.461Z,2.80
2023-12-04T17:29:22.981Z,2.80
2023-12-04T17:31:51.454Z,2.80
2023-12-04T17:34:18.742Z,2.80
2023-12-04T17:36:46.851Z,2.80
2023-12-04T17:39:17.979Z,2.90
2023-12-04T17:41:46.268Z,2.90
2023-12-04T17:44:13.534Z,2.80
2023-12-04T17:46:40.543Z,2.80
2023-12-04T17:49:07.560Z,2.80
2023-12-04T17:51:34.731Z,2.80
2023-12-04T17:54:01.719Z,2.70
2023-12-04T17:56:28.833Z,2.70
2023-12-04T17:58:55.824Z,2.70
2023-12-04T18:01:22.865Z,2.70
2023-12-04T18:03:49.986Z,2.70
2023-12-04T18:06:25.764Z,2.70
2023-12-04T18:08:53.012Z,2.60
2023-12-04T18:11:19.997Z,2.60
2023-12-04T18:13:47.839Z,2.60
2023-12-04T18:16:15.132Z,2.60
2023-12-04T18:18:42.264Z,2.60
2023-12-04T18:21:09.728Z,2.60
2023-12-04T18:23:36.741Z,2.70
2023-12-04T18:26:03.987Z,2.60
2023-12-04T18:28:31.142Z,2.60
2023-12-04T18:30:58.173Z,2.60
2023-12-04T18:33:26.411Z,2.60
2023-12-04T18:35:53.648Z,2.60
2023-12-04T18:38:25.971Z,2.60
2023-12-04T18:40:53.112Z,2.60
2023-12-04T18:43:20.224Z,2.60
2023-12-04T18:45:47.350Z,2.60
2023-12-04T18:48:19.246Z,2.60
2023-12-04T18:50:46.501Z,2.60
2023-12-04T18:53:15.139Z,2.70
2023-12-04T18:55:42.170Z,2.60
2023-12-04T18:58:14.620Z,2.60
2023-12-04T19:00:41.781Z,2.60
2023-12-04T19:03:08.859Z,2.60
2023-12-04T19:05:35.937Z,2.60
2023-12-04T19:08:03.691Z,2.50
2023-12-04T19:10:30.668Z,2.50
2023-12-04T19:12:57.594Z,2.50
2023-12-04T19:15:26.111Z,2.50
2023-12-04T19:17:53.240Z,2.40
2023-12-04T19:20:20.338Z,2.40
2023-12-04T19:22:47.295Z,2.40
2023-12-04T19:25:14.850Z,2.40
2023-12-04T19:27:42.002Z,2.30
2023-12-04T19:30:09.227Z,2.30
2023-12-04T19:32:36.452Z,2.30
2023-12-04T19:35:03.697Z,2.20
2023-12-04T19:37:30.667Z,2.30
2023-12-04T19:39:57.642Z,2.20
2023-12-04T19:42:27.132Z,2.30
2023-12-04T19:44:55.827Z,2.30
2023-12-04T19:47:24.185Z,2.30
2023-12-04T19:49:51.163Z,2.20
2023-12-04T19:52:18.155Z,2.20
2023-12-04T19:54:45.145Z,2.20
2023-12-04T19:57:12.196Z,2.20
2023-12-04T19:59:39.245Z,2.20
2023-12-04T20:02:06.463Z,2.20
2023-12-04T20:04:35.403Z,2.10
2023-12-04T20:07:02.777Z,2.10
2023-12-04T20:09:30.393Z,2.10
2023-12-04T20:11:57.375Z,2.10
2023-12-04T20:14:24.325Z,2.10
2023-12-04T20:16:52.231Z,2.20
2023-12-04T20:19:19.963Z,2.20
2023-12-04T20:21:47.154Z,2.20
2023-12-04T20:24:15.869Z,2.30
2023-12-04T20:26:42.998Z,2.30
2023-12-04T20:29:10.143Z,2.20
2023-12-04T20:31:37.134Z,2.20
2023-12-04T20:34:04.221Z,2.30
2023-12-04T20:36:31.221Z,2.30
2023-12-04T20:38:58.287Z,2.30
2023-12-04T20:41:25.253Z,2.30
2023-12-04T20:43:52.290Z,2.30
2023-12-04T20:46:19.256Z,2.30
2023-12-04T20:48:46.399Z,2.30
2023-12-04T20:51:14.469Z,2.30
2023-12-04T20:53:41.634Z,2.30
2023-12-04T20:56:08.983Z,2.30
2023-12-04T20:58:36.004Z,2.30
2023-12-04T21:01:03.997Z,2.20
2023-12-04T21:03:31.194Z,2.30
2023-12-04T21:05:58.288Z,2.30
2023-12-04T21:08:25.306Z,2.30
2023-12-04T21:10:52.292Z,2.40
2023-12-04T21:13:19.349Z,2.40
2023-12-04T21:15:47.917Z,2.40
2023-12-04T21:18:15.698Z,2.40
2023-12-04T21:20:44.158Z,2.50
2023-12-04T21:23:11.219Z,2.50
2023-12-04T21:25:38.293Z,2.60
2023-12-04T21:28:06.949Z,2.60
2023-12-04T21:30:34.336Z,2.60
2023-12-04T21:33:01.383Z,2.60
2023-12-04T21:35:28.450Z,2.60
2023-12-04T21:37:56.323Z,2.70
2023-12-04T21:40:24.281Z,2.70
2023-12-04T21:42:51.380Z,2.70
2023-12-04T21:45:22.411Z,2.70
2023-12-04T21:47:49.728Z,2.70
2023-12-04T21:50:16.787Z,2.80
2023-12-04T21:52:43.938Z,2.80
2023-12-04T21:55:13.002Z,2.80
2023-12-04T21:57:40.275Z,2.80
2023-12-04T22:00:08.364Z,2.80
2023-12-04T22:02:35.377Z,2.80
2023-12-04T22:05:02.473Z,2.80
2023-12-04T22:07:30.134Z,2.80
2023-12-04T22:09:57.585Z,2.80
2023-12-04T22:12:24.686Z,2.80
2023-12-04T22:14:51.697Z,2.80
2023-12-04T22:17:18.785Z,2.80
2023-12-04T22:19:46.067Z,2.90
2023-12-04T22:22:13.140Z,2.90
2023-12-04T22:24:40.213Z,2.90
2023-12-04T22:27:07.630Z,2.90
2023-12-04T22:29:35.495Z,2.90
2023-12-04T22:32:02.482Z,2.80
2023-12-04T22:34:29.502Z,2.80
2023-12-04T22:36:56.522Z,2.80
2023-12-04T22:39:24.509Z,2.80
2023-12-04T22:41:51.575Z,2.90
2023-12-04T22:44:18.499Z,2.90
2023-12-04T22:46:45.479Z,2.90
2023-12-04T22:49:12.936Z,3.00
2023-12-04T22:51:40.057Z,3.00
2023-12-04T22:54:07.099Z,3.00
2023-12-04T22:56:34.123Z,3.00
2023-12-04T22:59:01.161Z,3.00
2023-12-04T23:01:28.304Z,3.00
2023-12-04T23:03:56.369Z,3.00
2023-12-04T23:06:24.202Z,3.00
2023-12-04T23:08:51.319Z,3.00
2023-12-04T23:11:18.271Z,3.00
2023-12-04T23:13:45.332Z,3.00
2023-12-04T23:16:13.217Z,3.00
2023-12-04T23:18:40.357Z,3.10
2023-12-04T23:21:08.527Z,3.10
2023-12-04T23:23:36.010Z,3.10
2023-12-04T23:26:03.440Z,3.20
2023-12-04T23:28:30.376Z,3.20
2023-12-04T23:30:57.365Z,3.20
2023-12-04T23:33:25.230Z,3.20
2023-12-04T23:35:53.136Z,3.20
2023-12-04T23:38:20.327Z,3.30
2023-12-04T23:40:47.783Z,3.30
2023-12-04T23:43:15.157Z,3.30
2023-12-04T23:45:49.510Z,3.30
2023-12-04T23:48:20.746Z,3.30
2023-12-04T23:50:47.834Z,3.30
2023-12-04T23:53:14.759Z,3.30
2023-12-04T23:55:43.384Z,3.30
2023-12-04T23:58:10.548Z,3.30
